Time;durP1;ratioP1;P1;durP2;ratioP2;P2;SDS_P1;SDS_P2;PMS_P1;PMS_P2;Temp;Humidity;BMP_temperature;BMP_pressure;BME280_temperature;BME280_humidity;BME280_pressure;Samples;Min_cycle;Max_cycle;Signal;HPM_P1;HPM_P2
2021/08/04 00:03:14;;;;;;;0.25;0.25;;;24.40;99.90;;;;;;20616106;28;20227;-72
2021/08/04 00:13:19;;;;;;;0.70;0.68;;;24.40;99.90;;;;;;20616374;28;20462;-73
2021/08/04 00:23:24;;;;;;;0.82;0.60;;;24.10;99.90;;;;;;20614471;28;20557;-72
2021/08/04 00:33:29;;;;;;;0.50;0.50;;;23.90;99.90;;;;;;20614190;28;20223;-72
2021/08/04 00:43:33;;;;;;;0.83;0.83;;;23.70;99.90;;;;;;20614523;28;20219;-73
2021/08/04 00:53:38;;;;;;;1.47;0.90;;;23.30;99.90;;;;;;20614156;28;20199;-71
2021/08/04 01:03:44;;;;;;;0.50;0.50;;;23.00;99.90;;;;;;20615270;28;20576;-73
2021/08/04 01:13:52;;;;;;;1.50;1.07;;;22.90;99.90;;;;;;20612738;28;20204;-74
2021/08/04 01:24:04;;;;;;;0.20;0.10;;;22.70;99.90;;;;;;20614744;28;20227;-73
2021/08/04 01:34:10;;;;;;;0.80;0.50;;;22.70;99.90;;;;;;20621538;28;20203;-71
2021/08/04 01:44:15;;;;;;;0.50;0.40;;;22.60;99.90;;;;;;20606967;28;20224;-73
2021/08/04 01:54:20;;;;;;;1.70;0.87;;;22.60;99.90;;;;;;20627539;28;21031;-71
2021/08/04 02:04:25;;;;;;;1.23;0.87;;;22.50;99.90;;;;;;20625466;28;20585;-72
2021/08/04 02:14:36;;;;;;;0.43;0.40;;;22.60;99.90;;;;;;20624903;28;20195;-71
2021/08/04 02:24:45;;;;;;;1.43;0.77;;;22.40;99.90;;;;;;20625288;28;20234;-72
2021/08/04 02:34:50;;;;;;;0.43;0.40;;;22.60;99.90;;;;;;20622483;28;20208;-72
2021/08/04 02:44:54;;;;;;;6.30;1.77;;;22.50;99.90;;;;;;20622451;28;20989;-72
2021/08/04 02:54:59;;;;;;;0.30;0.30;;;22.50;99.90;;;;;;20604979;28;20199;-71
2021/08/04 03:05:03;;;;;;;0.50;0.50;;;22.50;99.90;;;;;;20620673;28;20235;-71
2021/08/04 03:15:09;;;;;;;5.90;0.87;;;22.40;99.90;;;;;;20619987;28;20221;-71
2021/08/04 03:25:15;;;;;;;1.43;0.77;;;22.60;99.90;;;;;;20618186;28;20686;-71
2021/08/04 03:35:20;;;;;;;0.40;0.40;;;22.60;99.90;;;;;;20601822;28;20501;-71
2021/08/04 03:45:23;;;;;;;0.20;0.10;;;22.50;99.90;;;;;;20617739;28;20227;-71
2021/08/04 03:55:28;;;;;;;0.47;0.47;;;22.70;99.90;;;;;;20614621;28;20192;-71
2021/08/04 04:05:32;;;;;;;0.40;0.20;;;22.60;99.90;;;;;;20551785;23;20726;-66
2021/08/04 04:15:37;;;;;;;0.20;0.13;;;22.70;99.90;;;;;;20538190;28;20200;-64
2021/08/04 04:25:41;;;;;;;3.60;1.90;;;22.70;99.90;;;;;;20535681;28;20729;-66
2021/08/04 04:35:45;;;;;;;0.50;0.50;;;22.70;99.90;;;;;;20519940;28;20214;-66
2021/08/04 04:45:49;;;;;;;9.20;1.37;;;22.80;99.90;;;;;;20533255;28;20232;-66
2021/08/04 04:55:54;;;;;;;0.40;0.40;;;23.00;99.90;;;;;;20534565;28;20453;-63
2021/08/04 05:05:58;;;;;;;0.77;0.60;;;23.30;99.90;;;;;;20487537;28;20608;-65
2021/08/04 05:16:03;;;;;;;0.20;0.20;;;23.40;99.90;;;;;;20549245;28;20211;-65
2021/08/04 05:26:06;;;;;;;0.40;0.40;;;23.60;99.90;;;;;;20547142;28;20228;-68
2021/08/04 05:36:11;;;;;;;1.13;0.93;;;23.70;99.90;;;;;;20549382;28;20201;-66
2021/08/04 05:46:15;;;;;;;1.40;0.50;;;23.80;99.90;;;;;;20546598;28;20230;-66
2021/08/04 05:56:20;;;;;;;0.20;0.10;;;24.00;99.90;;;;;;20547034;28;20262;-67
2021/08/04 06:06:24;;;;;;;0.60;0.60;;;24.20;99.90;;;;;;20518837;28;20239;-66
2021/08/04 06:16:29;;;;;;;1.23;1.02;;;24.10;99.90;;;;;;20471845;28;20196;-66
2021/08/04 06:26:34;;;;;;;0.57;0.57;;;24.20;99.90;;;;;;20541228;28;20227;-67
2021/08/04 06:36:39;;;;;;;0.80;0.40;;;24.30;99.90;;;;;;20538309;28;20679;-66
2021/08/04 06:46:43;;;;;;;1.33;0.70;;;24.20;99.90;;;;;;20518868;28;20356;-66
2021/08/04 06:56:48;;;;;;;5.57;1.27;;;24.20;99.90;;;;;;20523100;28;20206;-66
2021/08/04 07:06:53;;;;;;;0.80;0.65;;;24.50;99.90;;;;;;20624948;28;20238;-64
2021/08/04 07:16:58;;;;;;;0.25;0.22;;;24.50;99.90;;;;;;20699331;28;20206;-66
2021/08/04 07:27:03;;;;;;;5.90;0.90;;;24.50;99.90;;;;;;20697702;28;20227;-65
2021/08/04 07:37:08;;;;;;;1.85;0.82;;;24.70;99.90;;;;;;20698503;28;20691;-67
2021/08/04 07:47:12;;;;;;;1.75;1.02;;;25.10;99.90;;;;;;20698971;28;20700;-66
2021/08/04 07:57:17;;;;;;;1.40;0.75;;;25.30;99.90;;;;;;20680211;28;20195;-66
2021/08/04 08:07:21;;;;;;;0.65;0.65;;;25.40;99.90;;;;;;20675930;28;20249;-68
2021/08/04 08:17:25;;;;;;;2.07;1.37;;;25.90;99.90;;;;;;20688953;28;20459;-68
2021/08/04 08:27:29;;;;;;;2.60;0.93;;;26.40;99.90;;;;;;20693167;28;20230;-67
2021/08/04 08:37:35;;;;;;;1.77;1.38;;;26.60;99.90;;;;;;20691992;28;20191;-68
2021/08/04 08:47:40;;;;;;;0.65;0.50;;;26.80;99.90;;;;;;20691910;28;20227;-65
2021/08/04 08:57:51;;;;;;;0.65;0.65;;;27.60;99.90;;;;;;20594154;28;20198;-66
2021/08/04 09:07:54;;;;;;;0.50;0.50;;;26.80;99.90;;;;;;20631648;28;20512;-67
2021/08/04 09:18:01;;;;;;;0.73;0.65;;;27.20;99.90;;;;;;20629306;28;20195;-68
2021/08/04 09:28:05;;;;;;;0.77;0.77;;;26.80;99.90;;;;;;20605559;28;20230;-67
2021/08/04 09:38:10;;;;;;;0.20;0.17;;;26.40;99.90;;;;;;20623057;28;20203;-65
2021/08/04 09:48:16;;;;;;;6.00;0.85;;;26.90;99.90;;;;;;20561883;28;20220;-64
2021/08/04 09:58:25;;;;;;;7.50;1.40;;;27.50;99.90;;;;;;20541874;28;20196;-64
2021/08/04 10:08:29;;;;;;;0.68;0.60;;;27.60;99.90;;;;;;20619190;28;20253;-67
2021/08/04 10:18:35;;;;;;;0.43;0.43;;;27.40;99.90;;;;;;20700043;28;20252;-68
2021/08/04 10:28:40;;;;;;;0.50;0.50;;;27.70;99.90;;;;;;20700871;28;20663;-68
2021/08/04 10:38:48;;;;;;;1.17;0.50;;;27.90;99.90;;;;;;20698545;28;20218;-66
2021/08/04 10:48:52;;;;;;;0.60;0.57;;;27.20;99.90;;;;;;20615267;28;20250;-63
2021/08/04 10:59:24;;;;;;;0.38;0.38;;;27.60;99.90;;;;;;20600881;28;20638;-65
2021/08/04 11:09:37;;;;;;;1.40;0.68;;;28.00;99.90;;;;;;20667834;28;20227;-67
2021/08/04 11:20:10;;;;;;;0.20;0.10;;;27.40;99.90;;;;;;20697841;28;20233;-67
2021/08/04 11:30:15;;;;;;;0.20;0.17;;;26.30;99.90;;;;;;20688123;28;20234;-66
2021/08/04 11:40:20;;;;;;;1.20;1.00;;;26.50;99.90;;;;;;20696579;28;20218;-66
2021/08/04 11:50:24;;;;;;;0.45;0.20;;;26.70;99.90;;;;;;20615159;28;20237;-66
2021/08/04 12:00:29;;;;;;;0.40;0.40;;;27.20;99.90;;;;;;20594682;28;20946;-67
2021/08/04 12:10:34;;;;;;;0.30;0.30;;;30.60;99.90;;;;;;20664533;28;20234;-67
2021/08/04 12:20:39;;;;;;;0.52;0.20;;;31.40;99.90;;;;;;20692016;28;20202;-67
2021/08/04 12:30:44;;;;;;;2.17;0.52;;;33.00;99.90;;;;;;20691280;28;20250;-66
2021/08/04 12:40:52;;;;;;;1.83;0.80;;;31.70;99.90;;;;;;20694137;28;20199;-67
2021/08/04 12:50:57;;;;;;;0.55;0.47;;;31.40;99.90;;;;;;20692041;28;20226;-67
2021/08/04 13:01:21;;;;;;;0.55;0.50;;;30.30;99.90;;;;;;20689275;28;20338;-65
2021/08/04 13:11:28;;;;;;;0.45;0.32;;;30.70;99.90;;;;;;20669691;28;20222;-65
2021/08/04 13:21:36;;;;;;;0.60;0.50;;;28.40;99.90;;;;;;20673424;28;20202;-65
2021/08/04 13:31:53;;;;;;;1.25;0.57;;;27.70;99.90;;;;;;20700115;28;20716;-67
2021/08/04 13:41:58;;;;;;;19.52;3.05;;;26.60;99.90;;;;;;20678357;28;20191;-63
2021/08/04 13:52:04;;;;;;;0.52;0.52;;;25.90;99.90;;;;;;20622021;28;20231;-64
2021/08/04 14:02:09;;;;;;;1.00;0.85;;;25.90;99.90;;;;;;20603252;28;20227;-66
2021/08/04 14:12:13;;;;;;;0.60;0.55;;;30.30;99.90;;;;;;20670526;28;20274;-65
2021/08/04 14:22:19;;;;;;;1.27;0.50;;;28.90;99.90;;;;;;20700765;28;21196;-67
2021/08/04 14:32:24;;;;;;;1.17;0.85;;;27.40;99.90;;;;;;20698874;28;20286;-68
2021/08/04 14:42:29;;;;;;;6.93;1.80;;;26.50;99.90;;;;;;20685310;28;20988;-68
2021/08/04 14:52:34;;;;;;;1.10;0.50;;;25.90;99.90;;;;;;20615957;28;20203;-67
2021/08/04 15:02:39;;;;;;;1.00;0.75;;;27.10;99.90;;;;;;20616778;28;20231;-66
2021/08/04 15:12:43;;;;;;;6.35;1.42;;;26.50;99.90;;;;;;20687389;28;20433;-67
2021/08/04 15:22:49;;;;;;;0.52;0.50;;;25.50;99.90;;;;;;20618799;28;20365;-66
2021/08/04 15:32:53;;;;;;;5.45;1.25;;;24.60;99.90;;;;;;20611687;28;20553;-67
2021/08/04 15:42:58;;;;;;;0.77;0.63;;;24.00;99.90;;;;;;20597362;28;20212;-67
2021/08/04 15:53:03;;;;;;;1.33;0.93;;;23.50;99.90;;;;;;20612629;28;20683;-68
2021/08/04 16:03:08;;;;;;;0.53;0.53;;;23.20;99.90;;;;;;20611362;28;20231;-68
2021/08/04 16:13:12;;;;;;;0.43;0.30;;;23.00;99.90;;;;;;20512508;28;20834;-68
2021/08/04 16:23:18;;;;;;;1.50;1.13;;;23.20;99.90;;;;;;20530726;28;20573;-69
2021/08/04 16:33:21;;;;;;;1.03;0.73;;;23.20;99.90;;;;;;20530222;28;20536;-67
2021/08/04 16:43:26;;;;;;;19.17;1.13;;;22.50;99.90;;;;;;20548393;28;20573;-68
2021/08/04 16:53:30;;;;;;;0.57;0.40;;;22.20;99.90;;;;;;20610775;28;20191;-67
2021/08/04 17:03:35;;;;;;;0.50;0.43;;;22.30;99.90;;;;;;20615665;28;20314;-67
2021/08/04 17:13:39;;;;;;;0.20;0.17;;;22.00;99.90;;;;;;20706679;28;20717;-68
2021/08/04 17:23:44;;;;;;;2.60;1.97;;;21.90;99.90;;;;;;20705215;28;20226;-67
2021/08/04 17:33:49;;;;;;;2.20;1.23;;;21.90;99.90;;;;;;20705642;28;20532;-67
2021/08/04 17:43:54;;;;;;;1.27;1.05;;;24.00;99.90;;;;;;20706108;28;20218;-78
2021/08/04 17:53:58;;;;;;;1.48;1.38;;;24.70;99.90;;;;;;20707834;28;20666;-79
2021/08/04 18:04:04;;;;;;;0.23;0.20;;;23.10;99.90;;;;;;20650142;28;20258;-75
2021/08/04 18:14:09;;;;;;;0.23;0.20;;;22.70;99.90;;;;;;20684861;28;20202;-78
2021/08/04 18:24:16;;;;;;;0.20;0.07;;;22.50;99.90;;;;;;20602426;28;20699;-75
2021/08/04 18:34:20;;;;;;;0.20;0.10;;;22.50;99.90;;;;;;20620612;28;20203;-74
2021/08/04 18:44:26;;;;;;;0.20;0.10;;;22.40;99.90;;;;;;20620992;28;20265;-80
2021/08/04 18:54:34;;;;;;;0.23;0.20;;;22.00;99.90;;;;;;20619893;28;20199;-74
2021/08/04 19:04:41;;;;;;;0.67;0.27;;;21.70;99.90;;;;;;20628341;28;20262;-74
2021/08/04 19:14:48;;;;;;;0.87;0.50;;;21.60;99.90;;;;;;20687636;28;20199;-76
2021/08/04 19:24:55;;;;;;;6.73;0.47;;;21.30;99.90;;;;;;20684317;28;20230;-77
2021/08/04 19:35:00;;;;;;;0.20;0.10;;;21.50;99.90;;;;;;20702887;28;20700;-76
2021/08/04 19:45:07;;;;;;;0.37;0.33;;;21.40;99.90;;;;;;20698050;28;20222;-77
2021/08/04 19:55:12;;;;;;;0.53;0.53;;;21.20;99.90;;;;;;20669631;28;20291;-77
2021/08/04 20:05:17;;;;;;;0.40;0.40;;;20.90;99.90;;;;;;20630704;28;20585;-78
2021/08/04 20:15:21;;;;;;;0.20;0.10;;;20.90;99.90;;;;;;20697926;28;20298;-77
2021/08/04 20:25:26;;;;;;;0.30;0.30;;;20.80;99.90;;;;;;20695289;28;20262;-75
2021/08/04 20:35:33;;;;;;;0.33;0.33;;;20.50;99.90;;;;;;20676668;28;20210;-78
2021/08/04 20:45:41;;;;;;;0.67;0.50;;;20.30;99.90;;;;;;20697411;28;20241;-75
2021/08/04 20:55:48;;;;;;;0.33;0.23;;;20.20;99.90;;;;;;20890260;23;20587;-73
2021/08/04 21:06:05;;;;;;;0.20;0.00;;;20.00;99.90;;;;;;20678175;28;20427;-77
2021/08/04 21:16:10;;;;;;;0.30;0.30;;;20.00;99.90;;;;;;20696788;28;21078;-75
2021/08/04 21:26:15;;;;;;;0.37;0.30;;;19.90;99.90;;;;;;20697885;28;20246;-78
2021/08/04 21:36:21;;;;;;;0.20;0.10;;;19.90;99.90;;;;;;20680674;28;20549;-79
2021/08/04 21:46:35;;;;;;;0.20;0.10;;;19.80;99.90;;;;;;20692019;28;20214;-83
2021/08/04 21:56:43;;;;;;;0.20;0.20;;;19.80;99.90;;;;;;20722502;28;20215;-79
2021/08/04 22:06:51;;;;;;;1.13;0.53;;;19.80;99.90;;;;;;20711584;28;20545;-78
2021/08/04 22:16:55;;;;;;;0.30;0.23;;;19.90;99.90;;;;;;20707993;28;20249;-79
2021/08/04 22:27:00;;;;;;;6.53;0.60;;;20.00;99.90;;;;;;20707027;28;20577;-78
2021/08/04 22:37:04;;;;;;;1.03;0.40;;;20.10;99.90;;;;;;20707234;28;20222;-78
2021/08/04 22:47:10;;;;;;;0.40;0.23;;;20.40;99.90;;;;;;20688546;28;20701;-83
2021/08/04 22:57:13;;;;;;;0.20;0.10;;;20.40;99.90;;;;;;20692768;28;20231;-77
2021/08/04 23:07:18;;;;;;;0.20;0.10;;;20.50;99.90;;;;;;20728000;28;20257;-77
2021/08/04 23:17:22;;;;;;;0.20;0.13;;;20.50;99.90;;;;;;20700680;28;20206;-76
2021/08/04 23:27:27;;;;;;;0.20;0.10;;;20.70;99.90;;;;;;20698350;28;20231;-78
2021/08/04 23:37:31;;;;;;;0.20;0.00;;;20.80;99.90;;;;;;20699912;28;21101;-78
2021/08/04 23:47:36;;;;;;;0.30;0.20;;;20.80;99.90;;;;;;20700660;28;20222;-78
2021/08/04 23:57:39;;;;;;;0.53;0.40;;;20.70;99.90;;;;;;20700519;28;20238;-79
